createdAt,value
2018-12-27T00:01:53.678Z,80.10
2018-12-27T00:04:21.638Z,80.20
2018-12-27T00:06:49.631Z,80.30
2018-12-27T00:09:17.598Z,80.20
2018-12-27T00:11:45.530Z,80.20
2018-12-27T00:14:13.468Z,80.20
2018-12-27T00:16:41.338Z,80.20
2018-12-27T00:19:10.589Z,80.20
2018-12-27T00:21:38.547Z,80.30
2018-12-27T00:24:06.925Z,80.40
2018-12-27T00:26:34.851Z,80.40
2018-12-27T00:29:03.308Z,80.40
2018-12-27T00:31:31.893Z,80.40
2018-12-27T00:33:59.986Z,80.40
2018-12-27T00:36:28.170Z,81.20
2018-12-27T00:38:56.291Z,80.40
2018-12-27T00:41:24.468Z,80.40
2018-12-27T00:43:52.583Z,80.50
2018-12-27T00:46:20.715Z,80.40
2018-12-27T00:48:48.806Z,80.40
2018-12-27T00:51:16.944Z,80.50
2018-12-27T00:53:45.122Z,80.50
2018-12-27T00:56:13.306Z,80.60
2018-12-27T00:58:41.368Z,80.70
2018-12-27T01:01:09.501Z,80.60
2018-12-27T01:03:38.059Z,80.60
2018-12-27T01:06:06.308Z,80.60
2018-12-27T01:08:34.491Z,80.50
2018-12-27T01:11:02.559Z,80.60
2018-12-27T01:13:30.624Z,80.60
2018-12-27T01:15:58.735Z,80.60
2018-12-27T01:18:26.874Z,80.60
2018-12-27T01:20:54.932Z,80.70
2018-12-27T01:23:23.109Z,80.70
2018-12-27T01:25:51.308Z,80.70
2018-12-27T01:28:19.384Z,80.80
2018-12-27T01:30:47.523Z,80.80
2018-12-27T01:33:18.809Z,80.80
2018-12-27T01:35:46.069Z,80.80
2018-12-27T01:38:14.233Z,80.80
2018-12-27T01:40:42.255Z,80.90
2018-12-27T01:43:10.399Z,80.90
2018-12-27T01:45:38.439Z,80.90
2018-12-27T01:48:06.586Z,81.40
2018-12-27T01:50:34.643Z,80.90
2018-12-27T01:53:02.799Z,81.00
2018-12-27T01:55:30.859Z,81.10
2018-12-27T01:57:59.012Z,81.00
2018-12-27T02:00:27.060Z,81.00
2018-12-27T02:02:55.130Z,81.00
2018-12-27T02:05:23.174Z,81.00
2018-12-27T02:07:51.725Z,81.00
2018-12-27T02:10:20.517Z,81.00
2018-12-27T02:12:48.608Z,81.00
2018-12-27T02:15:16.695Z,81.10
2018-12-27T02:17:44.875Z,81.00
2018-12-27T02:20:12.962Z,81.10
2018-12-27T02:22:40.994Z,81.20
2018-12-27T02:25:09.610Z,81.10
2018-12-27T02:27:37.695Z,81.10
2018-12-27T02:30:05.794Z,81.10
2018-12-27T02:32:34.007Z,81.10
2018-12-27T02:35:02.149Z,81.10
2018-12-27T02:37:30.218Z,81.20
2018-12-27T02:39:58.316Z,81.20
2018-12-27T02:42:26.784Z,81.20
2018-12-27T02:44:55.135Z,81.20
2018-12-27T02:47:23.169Z,81.10
2018-12-27T02:49:51.317Z,81.20
2018-12-27T02:52:19.360Z,81.20
2018-12-27T02:54:47.511Z,81.10
2018-12-27T02:57:15.558Z,81.40
2018-12-27T02:59:43.724Z,81.20
2018-12-27T03:02:11.787Z,81.30
2018-12-27T03:04:39.939Z,81.30
2018-12-27T03:07:07.987Z,81.40
2018-12-27T03:09:36.160Z,81.30
2018-12-27T03:12:04.217Z,81.90
2018-12-27T03:14:33.055Z,81.30
2018-12-27T03:17:01.855Z,81.30
2018-12-27T03:19:30.024Z,81.30
2018-12-27T03:21:58.111Z,81.30
2018-12-27T03:24:26.221Z,81.40
2018-12-27T03:26:54.325Z,81.40
2018-12-27T03:29:22.538Z,81.40
2018-12-27T03:31:50.977Z,81.40
2018-12-27T03:34:19.586Z,81.40
2018-12-27T03:36:48.073Z,81.40
2018-12-27T03:39:16.187Z,81.50
2018-12-27T03:41:44.367Z,81.40
2018-12-27T03:44:12.456Z,81.50
2018-12-27T03:46:40.613Z,81.40
2018-12-27T03:49:09.238Z,81.40
2018-12-27T03:51:37.421Z,81.40
2018-12-27T03:54:05.584Z,81.50
2018-12-27T03:56:33.687Z,81.50
2018-12-27T03:59:02.911Z,81.60
2018-12-27T04:01:31.055Z,81.60
2018-12-27T04:04:01.529Z,81.60
2018-12-27T04:06:30.078Z,81.50
2018-12-27T04:08:58.118Z,81.50
2018-12-27T04:11:26.245Z,81.60
2018-12-27T04:13:54.295Z,81.50
2018-12-27T04:16:22.199Z,81.50
2018-12-27T04:18:50.056Z,81.70
2018-12-27T04:21:18.594Z,81.70
2018-12-27T04:23:46.620Z,81.70
2018-12-27T04:26:15.281Z,81.70
2018-12-27T04:28:43.238Z,82.40
2018-12-27T04:31:11.219Z,81.90
2018-12-27T04:33:39.091Z,81.70
2018-12-27T04:36:07.031Z,81.70
2018-12-27T04:38:35.451Z,81.70
2018-12-27T04:41:03.376Z,81.70
2018-12-27T04:43:33.700Z,81.80
2018-12-27T04:46:03.030Z,81.70
2018-12-27T04:48:30.999Z,81.80
2018-12-27T04:50:58.887Z,81.80
2018-12-27T04:53:27.308Z,81.70
2018-12-27T04:55:55.215Z,81.70
2018-12-27T04:58:23.250Z,81.70
2018-12-27T05:00:52.102Z,81.80
2018-12-27T05:03:20.983Z,81.80
2018-12-27T05:05:49.087Z,81.80
2018-12-27T05:08:17.015Z,81.80
2018-12-27T05:10:44.911Z,81.80
2018-12-27T05:13:12.880Z,81.70
2018-12-27T05:15:40.770Z,81.70
2018-12-27T05:18:08.716Z,82.00
2018-12-27T05:20:36.563Z,81.50
2018-12-27T05:23:04.639Z,81.40
2018-12-27T05:25:33.270Z,81.40
2018-12-27T05:28:01.298Z,81.40
2018-12-27T05:30:29.207Z,81.40
2018-12-27T05:32:57.171Z,81.40
2018-12-27T05:35:25.066Z,81.40
2018-12-27T05:37:52.987Z,81.30
2018-12-27T05:40:20.912Z,81.30
2018-12-27T05:42:49.046Z,81.30
2018-12-27T05:45:16.951Z,81.30
2018-12-27T05:47:45.721Z,81.30
2018-12-27T05:50:14.330Z,81.20
2018-12-27T05:52:44.431Z,81.20
2018-12-27T05:55:14.072Z,81.20
2018-12-27T05:57:41.938Z,81.20
2018-12-27T06:00:10.272Z,81.20
2018-12-27T06:02:38.857Z,81.40
2018-12-27T06:05:06.756Z,81.30
2018-12-27T06:07:35.699Z,81.30
2018-12-27T06:10:04.036Z,81.20
2018-12-27T06:12:32.087Z,81.20
2018-12-27T06:15:01.182Z,81.20
2018-12-27T06:17:29.111Z,81.20
2018-12-27T06:19:57.000Z,81.20
2018-12-27T06:22:25.134Z,81.20
2018-12-27T06:24:53.016Z,81.10
2018-12-27T06:27:20.989Z,81.20
2018-12-27T06:29:48.850Z,81.20
2018-12-27T06:32:18.390Z,81.20
2018-12-27T06:34:47.074Z,81.20
2018-12-27T06:37:15.036Z,81.10
2018-12-27T06:39:43.003Z,81.30
2018-12-27T06:42:10.890Z,81.20
2018-12-27T06:44:38.810Z,81.10
2018-12-27T06:47:07.958Z,81.20
2018-12-27T06:49:36.015Z,81.30
2018-12-27T06:52:03.916Z,81.20
2018-12-27T06:54:32.723Z,81.20
2018-12-27T06:57:00.688Z,81.40
2018-12-27T06:59:28.594Z,81.40
2018-12-27T07:01:57.244Z,81.30
2018-12-27T07:04:25.692Z,81.30
2018-12-27T07:06:54.265Z,81.30
2018-12-27T07:09:23.998Z,81.30
2018-12-27T07:11:51.952Z,81.40
2018-12-27T07:14:19.863Z,81.40
2018-12-27T07:16:47.823Z,81.40
2018-12-27T07:19:15.815Z,81.40
2018-12-27T07:21:44.891Z,81.40
2018-12-27T07:24:12.879Z,81.40
2018-12-27T07:26:41.375Z,81.30
2018-12-27T07:29:09.505Z,81.30
2018-12-27T07:31:37.451Z,81.40
2018-12-27T07:34:05.330Z,81.20
2018-12-27T07:36:33.347Z,81.20
2018-12-27T07:39:01.765Z,81.20
2018-12-27T07:41:30.479Z,81.20
2018-12-27T07:43:58.371Z,81.10
2018-12-27T07:46:26.242Z,81.20
2018-12-27T07:48:54.167Z,81.10
2018-12-27T07:51:22.214Z,81.10
2018-12-27T07:53:50.095Z,81.10
2018-12-27T07:56:18.195Z,81.20
2018-12-27T07:58:46.190Z,81.10
2018-12-27T08:01:14.234Z,81.00
2018-12-27T08:03:42.216Z,81.10
2018-12-27T08:06:10.156Z,81.00
2018-12-27T08:08:38.095Z,81.00
2018-12-27T08:11:07.214Z,80.90
2018-12-27T08:13:35.592Z,80.90
2018-12-27T08:16:03.561Z,80.90
2018-12-27T08:18:31.461Z,81.00
2018-12-27T08:20:59.375Z,81.70
2018-12-27T08:23:27.294Z,81.00
2018-12-27T08:25:55.342Z,80.90
2018-12-27T08:28:23.276Z,80.90
2018-12-27T08:30:51.202Z,80.90
2018-12-27T08:33:19.213Z,80.90
2018-12-27T08:35:47.196Z,80.90
2018-12-27T08:38:16.963Z,80.90
2018-12-27T08:40:44.992Z,80.80
2018-12-27T08:43:14.100Z,80.80
2018-12-27T08:45:42.888Z,80.90
2018-12-27T08:48:11.582Z,80.90
2018-12-27T08:50:40.158Z,81.80
2018-12-27T08:53:08.148Z,80.90
2018-12-27T08:55:36.171Z,81.50
2018-12-27T08:58:04.079Z,80.90
2018-12-27T09:00:32.081Z,80.90
2018-12-27T09:03:00.004Z,80.90
2018-12-27T09:05:27.939Z,80.90
2018-12-27T09:07:55.948Z,80.90
2018-12-27T09:10:24.181Z,80.90
2018-12-27T09:12:52.199Z,80.80
2018-12-27T09:15:20.235Z,81.70
2018-12-27T09:17:48.233Z,80.90
2018-12-27T09:20:16.479Z,80.80
2018-12-27T09:22:44.479Z,80.90
2018-12-27T09:25:14.202Z,80.90
2018-12-27T09:27:42.878Z,80.90
2018-12-27T09:30:10.914Z,81.00
2018-12-27T09:32:40.089Z,81.00
2018-12-27T09:35:09.173Z,80.90
2018-12-27T09:37:37.205Z,81.10
2018-12-27T09:40:05.223Z,81.10
2018-12-27T09:42:33.252Z,81.00
2018-12-27T09:45:01.275Z,81.10
2018-12-27T09:47:29.270Z,81.10
2018-12-27T09:49:57.318Z,81.00
2018-12-27T09:52:26.613Z,81.00
2018-12-27T09:54:54.519Z,81.00
2018-12-27T09:57:23.900Z,81.10
2018-12-27T09:59:52.527Z,81.00
2018-12-27T10:02:21.008Z,81.10
2018-12-27T10:04:49.016Z,81.10
2018-12-27T10:07:17.966Z,81.10
2018-12-27T10:09:46.065Z,81.10
2018-12-27T10:12:14.092Z,81.00
2018-12-27T10:14:42.015Z,81.00
2018-12-27T10:17:09.903Z,81.10
2018-12-27T10:19:37.904Z,81.00
2018-12-27T10:22:05.848Z,81.00
2018-12-27T10:24:33.867Z,81.00
2018-12-27T10:27:01.746Z,81.00
2018-12-27T10:29:29.707Z,81.00
2018-12-27T10:31:58.157Z,81.00
2018-12-27T10:34:26.561Z,81.00
2018-12-27T10:37:13.655Z,81.00
2018-12-27T10:40:00.954Z,80.90
2018-12-27T10:42:48.042Z,80.90
2018-12-27T10:45:35.144Z,80.80
2018-12-27T10:51:28.691Z,80.70
2018-12-27T10:54:15.812Z,80.90
2018-12-27T10:57:02.894Z,81.00
2018-12-27T10:59:50.035Z,81.00
2018-12-27T11:02:37.186Z,81.00
2018-12-27T13:04:31.082Z,81.10
2018-12-27T13:06:58.967Z,81.10
2018-12-27T13:09:26.808Z,81.10
2018-12-27T13:11:54.641Z,81.10
2018-12-27T13:14:22.540Z,81.10
2018-12-27T13:16:50.350Z,81.10
2018-12-27T13:19:18.215Z,81.10
2018-12-27T13:21:46.045Z,81.10
2018-12-27T13:24:13.916Z,81.20
2018-12-27T13:26:41.759Z,81.20
2018-12-27T13:29:09.611Z,81.10
2018-12-27T13:31:37.568Z,81.20
2018-12-27T13:34:05.431Z,81.20
2018-12-27T13:36:33.387Z,81.20
2018-12-27T13:39:01.237Z,81.20
2018-12-27T13:41:29.086Z,81.40
2018-12-27T13:43:56.979Z,81.40
2018-12-27T13:46:24.894Z,81.40
2018-12-27T13:48:52.811Z,81.50
2018-12-27T13:51:21.712Z,80.70
2018-12-27T13:53:49.674Z,81.50
2018-12-27T13:56:17.591Z,81.50
2018-12-27T13:58:45.820Z,81.60
2018-12-27T14:01:13.655Z,81.40
2018-12-27T14:03:41.661Z,81.40
2018-12-27T14:06:09.575Z,81.30
2018-12-27T14:08:37.471Z,81.40
2018-12-27T14:11:05.327Z,81.50
2018-12-27T14:13:33.316Z,81.40
2018-12-27T14:16:01.172Z,81.50
2018-12-27T14:18:29.062Z,81.50
2018-12-27T14:20:56.966Z,81.50
2018-12-27T14:23:24.845Z,81.60
2018-12-27T14:25:52.685Z,81.50
2018-12-27T14:28:20.546Z,81.60
2018-12-27T14:30:48.379Z,81.60
2018-12-27T14:33:16.205Z,81.60
2018-12-27T14:35:44.131Z,81.60
2018-12-27T14:38:12.003Z,81.60
2018-12-27T14:40:39.885Z,82.40
2018-12-27T14:43:07.732Z,81.60
2018-12-27T14:45:35.577Z,82.30
2018-12-27T14:48:03.458Z,81.70
2018-12-27T14:50:34.104Z,81.60
2018-12-27T14:53:01.995Z,81.70
2018-12-27T14:55:29.888Z,82.40
2018-12-27T14:57:57.799Z,81.70
2018-12-27T15:00:25.715Z,81.60
2018-12-27T15:02:55.483Z,81.70
2018-12-27T15:05:23.310Z,81.70
2018-12-27T15:07:51.177Z,81.70
2018-12-27T15:10:18.985Z,81.80
2018-12-27T15:12:46.855Z,81.70
2018-12-27T15:15:14.688Z,81.70
2018-12-27T15:17:42.575Z,81.80
2018-12-27T15:20:10.404Z,81.80
2018-12-27T15:22:38.190Z,81.80
2018-12-27T15:25:06.022Z,81.80
2018-12-27T15:27:33.822Z,81.90
2018-12-27T15:30:01.704Z,81.80
2018-12-27T15:32:29.591Z,81.90
2018-12-27T15:35:05.470Z,81.80
2018-12-27T15:37:33.299Z,81.80
2018-12-27T15:40:01.167Z,81.80
2018-12-27T15:42:28.971Z,81.90
2018-12-27T15:44:56.854Z,81.80
2018-12-27T15:47:24.635Z,81.90
2018-12-27T15:49:52.643Z,81.90
2018-12-27T15:52:20.446Z,82.00
2018-12-27T15:54:48.278Z,81.90
2018-12-27T15:57:16.088Z,82.00
2018-12-27T15:59:43.923Z,81.90
2018-12-27T16:02:11.883Z,81.80
2018-12-27T16:04:39.796Z,81.80
2018-12-27T16:07:07.629Z,81.80
2018-12-27T16:09:35.483Z,81.70
2018-12-27T16:12:03.286Z,81.90
2018-12-27T16:14:33.546Z,81.80
2018-12-27T16:17:01.347Z,82.50
2018-12-27T16:19:29.184Z,81.80
2018-12-27T16:21:57.062Z,81.80
2018-12-27T16:24:24.922Z,81.80
2018-12-27T16:26:52.692Z,81.80
2018-12-27T16:29:20.559Z,81.80
2018-12-27T16:31:48.387Z,81.80
2018-12-27T16:34:16.259Z,81.80
2018-12-27T16:36:44.059Z,81.80
2018-12-27T16:39:11.893Z,81.80
2018-12-27T16:41:39.711Z,81.70
2018-12-27T16:44:07.560Z,81.80
2018-12-27T16:46:35.355Z,81.70
2018-12-27T16:49:03.244Z,81.60
2018-12-27T16:51:31.095Z,81.60
2018-12-27T16:53:58.930Z,81.90
2018-12-27T16:56:26.807Z,81.40
2018-12-27T16:58:54.668Z,81.30
2018-12-27T17:01:22.462Z,81.20
2018-12-27T17:03:50.304Z,81.20
2018-12-27T17:06:18.130Z,81.20
2018-12-27T17:08:46.418Z,81.10
2018-12-27T17:11:14.262Z,81.00
2018-12-27T17:13:42.178Z,81.00
2018-12-27T17:16:09.971Z,81.00
2018-12-27T17:18:37.803Z,81.00
2018-12-27T17:21:05.659Z,81.00
2018-12-27T17:23:33.552Z,81.00
2018-12-27T17:26:01.602Z,81.00
2018-12-27T17:28:29.451Z,80.70
2018-12-27T17:30:57.262Z,77.30
2018-12-27T17:33:25.053Z,80.00
2018-12-27T17:35:52.890Z,80.20
2018-12-27T17:38:20.686Z,80.30
2018-12-27T17:40:53.642Z,80.20
2018-12-27T17:43:21.472Z,80.20
2018-12-27T17:45:49.288Z,80.10
2018-12-27T17:48:17.155Z,80.20
2018-12-27T17:50:44.970Z,80.20
2018-12-27T17:53:13.607Z,80.20
2018-12-27T17:55:41.434Z,80.20
2018-12-27T17:58:09.364Z,80.30
2018-12-27T18:00:41.495Z,80.20
2018-12-27T18:03:11.339Z,80.30
2018-12-27T18:05:39.161Z,80.30
2018-12-27T18:08:08.135Z,80.30
2018-12-27T18:10:38.103Z,80.30
2018-12-27T18:13:05.972Z,80.40
2018-12-27T18:15:33.819Z,80.40
2018-12-27T18:18:01.680Z,80.40
2018-12-27T18:20:29.574Z,80.40
2018-12-27T18:22:58.459Z,80.50
2018-12-27T18:25:29.384Z,80.50
2018-12-27T18:28:01.355Z,80.50
2018-12-27T18:30:29.307Z,80.50
2018-12-27T18:32:57.282Z,80.60
2018-12-27T18:35:26.234Z,80.70
2018-12-27T18:37:54.059Z,80.60
2018-12-27T18:40:21.963Z,80.70
2018-12-27T18:42:50.902Z,80.90
2018-12-27T18:45:18.757Z,80.70
2018-12-27T18:47:52.876Z,80.70
2018-12-27T18:50:20.747Z,80.70
2018-12-27T18:52:48.583Z,80.70
2018-12-27T18:55:20.074Z,80.90
2018-12-27T18:57:45.992Z,80.80
2018-12-27T19:00:14.047Z,80.80
2018-12-27T19:02:42.313Z,80.70
2018-12-27T19:05:29.658Z,80.70
2018-12-27T19:08:16.846Z,80.70
2018-12-27T19:11:03.968Z,80.70
2018-12-27T19:13:51.185Z,80.60
2018-12-27T19:16:38.288Z,80.70
2018-12-27T19:19:25.371Z,80.70
2018-12-27T19:22:12.522Z,80.80
2018-12-27T19:24:59.616Z,80.60
2018-12-27T19:27:46.724Z,80.80
2018-12-27T19:30:33.863Z,80.80
2018-12-27T19:33:44.869Z,80.60
2018-12-27T19:36:14.398Z,81.50
2018-12-27T19:39:01.479Z,80.60
2018-12-27T19:41:48.847Z,80.90
2018-12-27T19:44:35.939Z,80.80
2018-12-27T19:47:23.117Z,81.00
2018-12-27T19:49:51.042Z,81.20
2018-12-27T19:52:38.167Z,81.10
2018-12-27T19:55:05.981Z,80.90
2018-12-27T19:57:53.075Z,81.20
2018-12-27T20:00:40.252Z,81.20
2018-12-27T20:03:27.331Z,81.20
2018-12-27T20:06:14.526Z,81.20
2018-12-27T20:09:01.619Z,81.20
2018-12-27T20:11:48.867Z,81.20
2018-12-27T20:14:35.962Z,81.30
2018-12-27T20:17:23.139Z,81.40
2018-12-27T20:20:10.227Z,81.30
2018-12-27T20:22:57.440Z,81.30
2018-12-27T20:25:44.562Z,81.40
2018-12-27T20:28:32.743Z,81.40
2018-12-27T20:31:20.504Z,81.20
2018-12-27T20:34:07.612Z,81.40
2018-12-27T20:36:54.751Z,79.80
2018-12-27T20:39:41.864Z,76.00
2018-12-27T20:42:28.958Z,79.00
2018-12-27T20:45:16.589Z,79.40
2018-12-27T21:47:37.937Z,79.90
2018-12-27T21:50:25.058Z,80.00
2018-12-27T21:53:12.211Z,80.20
2018-12-27T21:55:39.987Z,80.30
2018-12-27T21:58:27.104Z,80.20
2018-12-27T22:01:14.439Z,80.20
2018-12-27T22:04:02.119Z,80.30
2018-12-27T22:06:49.461Z,80.40
2018-12-27T22:09:36.680Z,80.40
2018-12-27T22:12:23.802Z,80.30
2018-12-27T22:14:51.656Z,80.20
2018-12-27T22:17:19.496Z,80.50
2018-12-27T22:19:47.290Z,80.50
2018-12-27T22:22:15.614Z,80.60
2018-12-27T22:24:43.407Z,80.50
2018-12-27T22:27:19.190Z,80.70
2018-12-27T22:29:47.024Z,80.80
2018-12-27T22:32:14.845Z,80.80
2018-12-27T22:34:42.651Z,81.00
2018-12-27T22:37:19.550Z,80.90
2018-12-27T22:39:47.343Z,81.10
2018-12-27T22:42:15.155Z,81.10
2018-12-27T22:44:42.984Z,81.20
2018-12-27T22:47:10.784Z,81.20
2018-12-27T22:49:38.606Z,81.20
2018-12-27T22:52:06.390Z,81.20
2018-12-27T22:54:34.200Z,81.20
2018-12-27T22:57:01.998Z,81.20
2018-12-27T22:59:29.870Z,81.20
2018-12-27T23:01:57.800Z,81.10
2018-12-27T23:04:25.831Z,81.20
2018-12-27T23:06:55.123Z,81.20
2018-12-27T23:09:23.439Z,81.20
2018-12-27T23:11:57.460Z,81.40
2018-12-27T23:14:25.528Z,81.20
2018-12-27T23:16:53.392Z,81.20
2018-12-27T23:19:21.256Z,81.00
2018-12-27T23:21:49.047Z,81.10
2018-12-27T23:24:16.857Z,81.10
2018-12-27T23:26:44.642Z,81.10
2018-12-27T23:29:12.730Z,81.20
2018-12-27T23:31:40.547Z,81.30
2018-12-27T23:34:08.379Z,81.30
2018-12-27T23:36:36.247Z,81.40
2018-12-27T23:39:05.777Z,81.40
2018-12-27T23:41:33.596Z,81.40
2018-12-27T23:44:01.420Z,81.40
2018-12-27T23:46:29.235Z,81.50
2018-12-27T23:48:57.143Z,81.50
2018-12-27T23:51:24.938Z,81.50
2018-12-27T23:53:52.767Z,81.50
2018-12-27T23:56:20.564Z,81.60
2018-12-27T23:58:48.390Z,81.40
